Time;durP1;ratioP1;P1;durP2;ratioP2;P2;SDS_P1;SDS_P2;PMS_P1;PMS_P2;Temp;Humidity;BMP_temperature;BMP_pressure;BME280_temperature;BME280_humidity;BME280_pressure;Samples;Min_cycle;Max_cycle;Signal;HPM_P1;HPM_P2
2022/08/27 00:00:28;;;;;;;12.5;9.899999;;;;;;;17.21;74.02246;95037.43;;;;
2022/08/27 00:01:29;;;;;;;12.5;9.899999;;;;;;;17.21;74.02246;95037.43;;;;
2022/08/27 00:02:34;;;;;;;12.5;9.899999;;;;;;;17.21;74.02246;95037.43;;;;
2022/08/27 00:03:34;;;;;;;12.5;9.899999;;;;;;;17.21;74.02246;95037.43;;;;
2022/08/27 00:04:35;;;;;;;12.5;9.899999;;;;;;;17.21;74.02246;95037.43;;;;
2022/08/27 00:05:37;;;;;;;12.5;9.899999;;;;;;;17.21;74.02246;95037.43;;;;
2022/08/27 00:06:37;;;;;;;12.5;9.899999;;;;;;;17.21;74.02246;95037.43;;;;
2022/08/27 00:07:38;;;;;;;12.5;9.899999;;;;;;;17.21;74.02246;95037.43;;;;
2022/08/27 00:08:39;;;;;;;12.5;9.899999;;;;;;;17.21;74.02246;95037.43;;;;
2022/08/27 00:09:41;;;;;;;12.5;9.899999;;;;;;;17.21;74.02246;95037.43;;;;
2022/08/27 00:10:42;;;;;;;11.25;9.900001;;;;;;;17.13;74.29395;95049.94;;;;
2022/08/27 00:11:43;;;;;;;11.25;9.900001;;;;;;;17.13;74.29395;95049.94;;;;
2022/08/27 00:12:44;;;;;;;11.25;9.900001;;;;;;;17.13;74.29395;95049.94;;;;
2022/08/27 00:13:45;;;;;;;11.25;9.900001;;;;;;;17.13;74.29395;95049.94;;;;
2022/08/27 00:14:46;;;;;;;11.25;9.900001;;;;;;;17.13;74.29395;95049.94;;;;
2022/08/27 00:15:47;;;;;;;11.25;9.900001;;;;;;;17.13;74.29395;95049.94;;;;
2022/08/27 00:16:47;;;;;;;11.25;9.900001;;;;;;;17.13;74.29395;95049.94;;;;
2022/08/27 00:17:48;;;;;;;11.25;9.900001;;;;;;;17.13;74.29395;95049.94;;;;
2022/08/27 00:18:49;;;;;;;11.25;9.900001;;;;;;;17.13;74.29395;95049.94;;;;
2022/08/27 00:19:52;;;;;;;11.25;9.900001;;;;;;;17.13;74.29395;95049.94;;;;
2022/08/27 00:20:52;;;;;;;11.25;9.900001;;;;;;;17.13;74.29395;95049.94;;;;
2022/08/27 00:21:54;;;;;;;11.1;9.9;;;;;;;17.16;74.69238;95080.14;;;;
2022/08/27 00:22:55;;;;;;;11.1;9.9;;;;;;;17.16;74.69238;95080.14;;;;
2022/08/27 00:23:55;;;;;;;11.1;9.9;;;;;;;17.16;74.69238;95080.14;;;;
2022/08/27 00:24:56;;;;;;;11.1;9.9;;;;;;;17.16;74.69238;95080.14;;;;
2022/08/27 00:25:56;;;;;;;11.1;9.9;;;;;;;17.16;74.69238;95080.14;;;;
2022/08/27 00:26:57;;;;;;;11.1;9.9;;;;;;;17.16;74.69238;95080.14;;;;
2022/08/27 00:27:58;;;;;;;11.1;9.9;;;;;;;17.16;74.69238;95080.14;;;;
2022/08/27 00:28:58;;;;;;;11.1;9.9;;;;;;;17.16;74.69238;95080.14;;;;
2022/08/27 00:29:59;;;;;;;11.1;9.9;;;;;;;17.16;74.69238;95080.14;;;;
2022/08/27 00:30:59;;;;;;;11.1;9.9;;;;;;;17.16;74.69238;95080.14;;;;
2022/08/27 00:32:00;;;;;;;12.3;10.5;;;;;;;17.22;74.82324;95065.63;;;;
2022/08/27 00:33:02;;;;;;;12.3;10.5;;;;;;;17.22;74.82324;95065.63;;;;
2022/08/27 00:34:04;;;;;;;12.3;10.5;;;;;;;17.22;74.82324;95065.63;;;;
2022/08/27 00:35:04;;;;;;;12.3;10.5;;;;;;;17.22;74.82324;95065.63;;;;
2022/08/27 00:36:06;;;;;;;12.3;10.5;;;;;;;17.22;74.82324;95065.63;;;;
2022/08/27 00:37:07;;;;;;;12.3;10.5;;;;;;;17.22;74.82324;95065.63;;;;
2022/08/27 00:38:08;;;;;;;12.3;10.5;;;;;;;17.22;74.82324;95065.63;;;;
2022/08/27 00:39:08;;;;;;;12.3;10.5;;;;;;;17.22;74.82324;95065.63;;;;
2022/08/27 00:40:10;;;;;;;12.3;10.5;;;;;;;17.22;74.82324;95065.63;;;;
2022/08/27 00:41:19;;;;;;;12.3;10.5;;;;;;;17.22;74.82324;95065.63;;;;
2022/08/27 00:42:21;;;;;;;12.3;10.5;;;;;;;17.22;74.82324;95065.63;;;;
2022/08/27 00:43:22;;;;;;;13.2;11.2;;;;;;;17.28;75.00586;95071.41;;;;
2022/08/27 00:44:23;;;;;;;13.2;11.2;;;;;;;17.28;75.00586;95071.41;;;;
2022/08/27 00:45:25;;;;;;;13.2;11.2;;;;;;;17.28;75.00586;95071.41;;;;
2022/08/27 00:46:25;;;;;;;13.2;11.2;;;;;;;17.28;75.00586;95071.41;;;;
2022/08/27 00:47:30;;;;;;;13.2;11.2;;;;;;;17.28;75.00586;95071.41;;;;
2022/08/27 00:48:35;;;;;;;13.2;11.2;;;;;;;17.28;75.00586;95071.41;;;;
2022/08/27 00:49:36;;;;;;;13.2;11.2;;;;;;;17.28;75.00586;95071.41;;;;
2022/08/27 00:50:40;;;;;;;13.2;11.2;;;;;;;17.28;75.00586;95071.41;;;;
2022/08/27 00:51:45;;;;;;;13.2;11.2;;;;;;;17.28;75.00586;95071.41;;;;
2022/08/27 00:52:52;;;;;;;13.2;11.2;;;;;;;17.28;75.00586;95071.41;;;;
2022/08/27 00:53:56;;;;;;;14.7;11.7;;;;;;;17.3;75.20703;95061.13;;;;
2022/08/27 00:54:57;;;;;;;14.7;11.7;;;;;;;17.3;75.20703;95061.13;;;;
2022/08/27 00:56:02;;;;;;;14.7;11.7;;;;;;;17.3;75.20703;95061.13;;;;
2022/08/27 00:57:09;;;;;;;14.7;11.7;;;;;;;17.3;75.20703;95061.13;;;;
2022/08/27 00:58:09;;;;;;;14.7;11.7;;;;;;;17.3;75.20703;95061.13;;;;
2022/08/27 00:59:19;;;;;;;14.7;11.7;;;;;;;17.3;75.20703;95061.13;;;;
2022/08/27 01:00:23;;;;;;;14.7;11.7;;;;;;;17.3;75.20703;95061.13;;;;
2022/08/27 01:01:24;;;;;;;14.7;11.7;;;;;;;17.3;75.20703;95061.13;;;;
2022/08/27 01:02:29;;;;;;;14.7;11.7;;;;;;;17.3;75.20703;95061.13;;;;
2022/08/27 01:03:30;;;;;;;14.7;11.7;;;;;;;17.3;75.20703;95061.13;;;;
2022/08/27 01:04:31;;;;;;;17.25;11.75;;;;;;;17.47;75.46582;95053.91;;;;
2022/08/27 01:05:34;;;;;;;17.25;11.75;;;;;;;17.47;75.46582;95053.91;;;;
2022/08/27 01:06:36;;;;;;;17.25;11.75;;;;;;;17.47;75.46582;95053.91;;;;
2022/08/27 01:07:37;;;;;;;17.25;11.75;;;;;;;17.47;75.46582;95053.91;;;;
2022/08/27 01:08:41;;;;;;;17.25;11.75;;;;;;;17.47;75.46582;95053.91;;;;
2022/08/27 01:09:46;;;;;;;17.25;11.75;;;;;;;17.47;75.46582;95053.91;;;;
2022/08/27 01:10:48;;;;;;;17.25;11.75;;;;;;;17.47;75.46582;95053.91;;;;
2022/08/27 01:11:51;;;;;;;17.25;11.75;;;;;;;17.47;75.46582;95053.91;;;;
2022/08/27 01:12:55;;;;;;;17.25;11.75;;;;;;;17.47;75.46582;95053.91;;;;
2022/08/27 01:13:56;;;;;;;17.25;11.75;;;;;;;17.47;75.46582;95053.91;;;;
2022/08/27 01:14:57;;;;;;;13.65;12.1;;;;;;;17.62;75.5459;95050.9;;;;
2022/08/27 01:15:59;;;;;;;13.65;12.1;;;;;;;17.62;75.5459;95050.9;;;;
2022/08/27 01:17:00;;;;;;;13.65;12.1;;;;;;;17.62;75.5459;95050.9;;;;
2022/08/27 01:18:02;;;;;;;13.65;12.1;;;;;;;17.62;75.5459;95050.9;;;;
2022/08/27 01:19:05;;;;;;;13.65;12.1;;;;;;;17.62;75.5459;95050.9;;;;
2022/08/27 01:20:13;;;;;;;13.65;12.1;;;;;;;17.62;75.5459;95050.9;;;;
2022/08/27 01:21:18;;;;;;;13.65;12.1;;;;;;;17.62;75.5459;95050.9;;;;
2022/08/27 01:22:25;;;;;;;13.65;12.1;;;;;;;17.62;75.5459;95050.9;;;;
2022/08/27 01:23:34;;;;;;;13.65;12.1;;;;;;;17.62;75.5459;95050.9;;;;
2022/08/27 01:24:41;;;;;;;13.65;12.1;;;;;;;17.62;75.5459;95050.9;;;;
2022/08/27 01:25:45;;;;;;;13.65;12.1;;;;;;;17.62;75.5459;95050.9;;;;
2022/08/27 01:26:46;;;;;;;13.65;12.1;;;;;;;17.62;75.5459;95050.9;;;;
2022/08/27 01:27:47;;;;;;;13.65;12.1;;;;;;;17.62;75.5459;95050.9;;;;
2022/08/27 01:28:48;;;;;;;13.65;12.1;;;;;;;17.62;75.5459;95050.9;;;;
2022/08/27 01:29:50;;;;;;;13.65;12.1;;;;;;;17.62;75.5459;95050.9;;;;
2022/08/27 01:30:51;;;;;;;13.65;12.1;;;;;;;17.62;75.5459;95050.9;;;;
2022/08/27 01:31:52;;;;;;;13.65;12.1;;;;;;;17.62;75.5459;95050.9;;;;
2022/08/27 01:32:54;;;;;;;13.65;12.1;;;;;;;17.62;75.5459;95050.9;;;;
2022/08/27 01:33:55;;;;;;;13.65;12.1;;;;;;;17.62;75.5459;95050.9;;;;
2022/08/27 01:34:58;;;;;;;13.65;12.1;;;;;;;17.62;75.5459;95050.9;;;;
2022/08/27 01:36:01;;;;;;;12.35;10.8;;;;;;;17.98;75.66211;95032.45;;;;
2022/08/27 01:37:04;;;;;;;12.35;10.8;;;;;;;17.98;75.66211;95032.45;;;;
2022/08/27 01:38:05;;;;;;;12.35;10.8;;;;;;;17.98;75.66211;95032.45;;;;
2022/08/27 01:39:06;;;;;;;12.35;10.8;;;;;;;17.98;75.66211;95032.45;;;;
2022/08/27 01:40:07;;;;;;;12.35;10.8;;;;;;;17.98;75.66211;95032.45;;;;
2022/08/27 01:41:10;;;;;;;12.35;10.8;;;;;;;17.98;75.66211;95032.45;;;;
2022/08/27 01:42:10;;;;;;;12.35;10.8;;;;;;;17.98;75.66211;95032.45;;;;
2022/08/27 01:43:16;;;;;;;12.35;10.8;;;;;;;17.98;75.66211;95032.45;;;;
2022/08/27 01:44:16;;;;;;;12.35;10.8;;;;;;;17.98;75.66211;95032.45;;;;
2022/08/27 01:45:17;;;;;;;12.35;10.8;;;;;;;17.98;75.66211;95032.45;;;;
2022/08/27 01:46:20;;;;;;;12.35;10.8;;;;;;;17.98;75.66211;95032.45;;;;
2022/08/27 01:47:22;;;;;;;15.05;12.1;;;;;;;18.1;75.8584;95048.27;;;;
2022/08/27 01:48:25;;;;;;;15.05;12.1;;;;;;;18.1;75.8584;95048.27;;;;
2022/08/27 01:49:26;;;;;;;15.05;12.1;;;;;;;18.1;75.8584;95048.27;;;;
2022/08/27 01:50:27;;;;;;;15.05;12.1;;;;;;;18.1;75.8584;95048.27;;;;
2022/08/27 01:51:31;;;;;;;15.05;12.1;;;;;;;18.1;75.8584;95048.27;;;;
2022/08/27 01:52:33;;;;;;;15.05;12.1;;;;;;;18.1;75.8584;95048.27;;;;
2022/08/27 01:53:33;;;;;;;15.05;12.1;;;;;;;18.1;75.8584;95048.27;;;;
2022/08/27 01:54:34;;;;;;;15.05;12.1;;;;;;;18.1;75.8584;95048.27;;;;
2022/08/27 01:55:34;;;;;;;15.05;12.1;;;;;;;18.1;75.8584;95048.27;;;;
2022/08/27 01:56:35;;;;;;;15.05;12.1;;;;;;;18.1;75.8584;95048.27;;;;
2022/08/27 01:57:36;;;;;;;14.2;12.05;;;;;;;18.15;75.91895;95044.79;;;;
2022/08/27 01:58:37;;;;;;;14.2;12.05;;;;;;;18.15;75.91895;95044.79;;;;
2022/08/27 01:59:38;;;;;;;14.2;12.05;;;;;;;18.15;75.91895;95044.79;;;;
2022/08/27 02:00:38;;;;;;;14.2;12.05;;;;;;;18.15;75.91895;95044.79;;;;
2022/08/27 02:01:42;;;;;;;14.2;12.05;;;;;;;18.15;75.91895;95044.79;;;;
2022/08/27 02:02:43;;;;;;;14.2;12.05;;;;;;;18.15;75.91895;95044.79;;;;
2022/08/27 02:03:46;;;;;;;14.2;12.05;;;;;;;18.15;75.91895;95044.79;;;;
2022/08/27 02:04:46;;;;;;;14.2;12.05;;;;;;;18.15;75.91895;95044.79;;;;
2022/08/27 02:05:47;;;;;;;14.2;12.05;;;;;;;18.15;75.91895;95044.79;;;;
2022/08/27 02:06:47;;;;;;;14.2;12.05;;;;;;;18.15;75.91895;95044.79;;;;
2022/08/27 02:07:48;;;;;;;14.2;12.05;;;;;;;18.15;75.91895;95044.79;;;;
2022/08/27 02:08:49;;;;;;;12.35;11.1;;;;;;;18.24;76.1543;95044.56;;;;
2022/08/27 02:09:50;;;;;;;12.35;11.1;;;;;;;18.24;76.1543;95044.56;;;;
2022/08/27 02:10:51;;;;;;;12.35;11.1;;;;;;;18.24;76.1543;95044.56;;;;
2022/08/27 02:11:52;;;;;;;12.35;11.1;;;;;;;18.24;76.1543;95044.56;;;;
2022/08/27 02:12:52;;;;;;;12.35;11.1;;;;;;;18.24;76.1543;95044.56;;;;
2022/08/27 02:13:53;;;;;;;12.35;11.1;;;;;;;18.24;76.1543;95044.56;;;;
2022/08/27 02:14:53;;;;;;;12.35;11.1;;;;;;;18.24;76.1543;95044.56;;;;
2022/08/27 02:15:54;;;;;;;12.35;11.1;;;;;;;18.24;76.1543;95044.56;;;;
2022/08/27 02:16:54;;;;;;;12.35;11.1;;;;;;;18.24;76.1543;95044.56;;;;
2022/08/27 02:17:55;;;;;;;12.35;11.1;;;;;;;18.24;76.1543;95044.56;;;;
2022/08/27 02:18:56;;;;;;;13.8;11.15;;;;;;;18.27;76.26855;95037.73;;;;
2022/08/27 02:19:57;;;;;;;13.8;11.15;;;;;;;18.27;76.26855;95037.73;;;;
2022/08/27 02:20:58;;;;;;;13.8;11.15;;;;;;;18.27;76.26855;95037.73;;;;
2022/08/27 02:21:59;;;;;;;13.8;11.15;;;;;;;18.27;76.26855;95037.73;;;;
2022/08/27 02:22:59;;;;;;;13.8;11.15;;;;;;;18.27;76.26855;95037.73;;;;
2022/08/27 02:24:01;;;;;;;13.8;11.15;;;;;;;18.27;76.26855;95037.73;;;;
2022/08/27 02:25:02;;;;;;;13.8;11.15;;;;;;;18.27;76.26855;95037.73;;;;
2022/08/27 02:26:04;;;;;;;13.8;11.15;;;;;;;18.27;76.26855;95037.73;;;;
2022/08/27 02:27:05;;;;;;;13.8;11.15;;;;;;;18.27;76.26855;95037.73;;;;
2022/08/27 02:28:06;;;;;;;13.8;11.15;;;;;;;18.27;76.26855;95037.73;;;;
2022/08/27 02:29:08;;;;;;;13.8;11.15;;;;;;;18.27;76.26855;95037.73;;;;
2022/08/27 02:30:08;;;;;;;14.1;11.65;;;;;;;18.34;76.46582;95030.24;;;;
2022/08/27 02:31:14;;;;;;;14.1;11.65;;;;;;;18.34;76.46582;95030.24;;;;
2022/08/27 02:32:15;;;;;;;14.1;11.65;;;;;;;18.34;76.46582;95030.24;;;;
2022/08/27 02:33:15;;;;;;;14.1;11.65;;;;;;;18.34;76.46582;95030.24;;;;
2022/08/27 02:34:16;;;;;;;14.1;11.65;;;;;;;18.34;76.46582;95030.24;;;;
2022/08/27 02:35:17;;;;;;;14.1;11.65;;;;;;;18.34;76.46582;95030.24;;;;
2022/08/27 02:36:20;;;;;;;14.1;11.65;;;;;;;18.34;76.46582;95030.24;;;;
2022/08/27 02:37:21;;;;;;;14.1;11.65;;;;;;;18.34;76.46582;95030.24;;;;
2022/08/27 02:38:23;;;;;;;14.1;11.65;;;;;;;18.34;76.46582;95030.24;;;;
2022/08/27 02:39:24;;;;;;;14.1;11.65;;;;;;;18.34;76.46582;95030.24;;;;
2022/08/27 02:40:24;;;;;;;13.85;10.9;;;;;;;18.28;76.79688;95031.72;;;;
2022/08/27 02:41:26;;;;;;;13.85;10.9;;;;;;;18.28;76.79688;95031.72;;;;
2022/08/27 02:42:26;;;;;;;13.85;10.9;;;;;;;18.28;76.79688;95031.72;;;;
2022/08/27 02:43:27;;;;;;;13.85;10.9;;;;;;;18.28;76.79688;95031.72;;;;
2022/08/27 02:44:27;;;;;;;13.85;10.9;;;;;;;18.28;76.79688;95031.72;;;;
2022/08/27 02:45:28;;;;;;;13.85;10.9;;;;;;;18.28;76.79688;95031.72;;;;
2022/08/27 02:46:28;;;;;;;13.85;10.9;;;;;;;18.28;76.79688;95031.72;;;;
2022/08/27 02:47:29;;;;;;;13.85;10.9;;;;;;;18.28;76.79688;95031.72;;;;
2022/08/27 02:48:29;;;;;;;13.85;10.9;;;;;;;18.28;76.79688;95031.72;;;;
2022/08/27 02:49:30;;;;;;;13.85;10.9;;;;;;;18.28;76.79688;95031.72;;;;
2022/08/27 02:50:30;;;;;;;13.85;10.9;;;;;;;18.28;76.79688;95031.72;;;;
2022/08/27 02:51:31;;;;;;;10.1;8.950001;;;;;;;18.26;77.1748;95012.95;;;;
2022/08/27 02:52:32;;;;;;;10.1;8.950001;;;;;;;18.26;77.1748;95012.95;;;;
2022/08/27 02:53:34;;;;;;;10.1;8.950001;;;;;;;18.26;77.1748;95012.95;;;;
2022/08/27 02:54:35;;;;;;;10.1;8.950001;;;;;;;18.26;77.1748;95012.95;;;;
2022/08/27 02:55:36;;;;;;;10.1;8.950001;;;;;;;18.26;77.1748;95012.95;;;;
2022/08/27 02:56:36;;;;;;;10.1;8.950001;;;;;;;18.26;77.1748;95012.95;;;;
2022/08/27 02:57:38;;;;;;;10.1;8.950001;;;;;;;18.26;77.1748;95012.95;;;;
2022/08/27 02:58:40;;;;;;;10.1;8.950001;;;;;;;18.26;77.1748;95012.95;;;;
2022/08/27 02:59:40;;;;;;;10.1;8.950001;;;;;;;18.26;77.1748;95012.95;;;;
2022/08/27 03:00:41;;;;;;;10.1;8.950001;;;;;;;18.26;77.1748;95012.95;;;;
2022/08/27 03:01:42;;;;;;;8.15;7.349999;;;;;;;18.16;77.34277;95006.25;;;;
2022/08/27 03:02:42;;;;;;;8.15;7.349999;;;;;;;18.16;77.34277;95006.25;;;;
2022/08/27 03:03:43;;;;;;;8.15;7.349999;;;;;;;18.16;77.34277;95006.25;;;;
2022/08/27 03:04:44;;;;;;;8.15;7.349999;;;;;;;18.16;77.34277;95006.25;;;;
2022/08/27 03:05:46;;;;;;;8.15;7.349999;;;;;;;18.16;77.34277;95006.25;;;;
2022/08/27 03:06:46;;;;;;;8.15;7.349999;;;;;;;18.16;77.34277;95006.25;;;;
2022/08/27 03:07:48;;;;;;;8.15;7.349999;;;;;;;18.16;77.34277;95006.25;;;;
2022/08/27 03:08:48;;;;;;;8.15;7.349999;;;;;;;18.16;77.34277;95006.25;;;;
2022/08/27 03:09:49;;;;;;;8.15;7.349999;;;;;;;18.16;77.34277;95006.25;;;;
2022/08/27 03:10:50;;;;;;;8.15;7.349999;;;;;;;18.16;77.34277;95006.25;;;;
2022/08/27 03:11:52;;;;;;;8.15;7.349999;;;;;;;18.16;77.34277;95006.25;;;;
2022/08/27 03:12:53;;;;;;;7.649999;6.85;;;;;;;18.11;77.6416;95012;;;;
2022/08/27 03:13:53;;;;;;;7.649999;6.85;;;;;;;18.11;77.6416;95012;;;;
2022/08/27 03:14:54;;;;;;;7.649999;6.85;;;;;;;18.11;77.6416;95012;;;;
2022/08/27 03:15:54;;;;;;;7.649999;6.85;;;;;;;18.11;77.6416;95012;;;;
2022/08/27 03:16:55;;;;;;;7.649999;6.85;;;;;;;18.11;77.6416;95012;;;;
2022/08/27 03:18:27;;;;;;;7.649999;6.85;;;;;;;18.11;77.6416;95012;;;;
2022/08/27 03:19:28;;;;;;;7.649999;6.85;;;;;;;18.11;77.6416;95012;;;;
2022/08/27 03:20:28;;;;;;;7.649999;6.85;;;;;;;18.11;77.6416;95012;;;;
2022/08/27 03:21:29;;;;;;;7.649999;6.85;;;;;;;18.11;77.6416;95012;;;;
2022/08/27 03:22:30;;;;;;;7.649999;6.85;;;;;;;18.11;77.6416;95012;;;;
2022/08/27 03:23:32;;;;;;;8.099999;6.65;;;;;;;18.03;77.7793;95006.79;;;;
2022/08/27 03:24:33;;;;;;;8.099999;6.65;;;;;;;18.03;77.7793;95006.79;;;;
2022/08/27 03:25:34;;;;;;;8.099999;6.65;;;;;;;18.03;77.7793;95006.79;;;;
2022/08/27 03:26:36;;;;;;;8.099999;6.65;;;;;;;18.03;77.7793;95006.79;;;;
2022/08/27 03:27:37;;;;;;;8.099999;6.65;;;;;;;18.03;77.7793;95006.79;;;;
2022/08/27 03:28:37;;;;;;;8.099999;6.65;;;;;;;18.03;77.7793;95006.79;;;;
2022/08/27 03:29:38;;;;;;;8.099999;6.65;;;;;;;18.03;77.7793;95006.79;;;;
2022/08/27 03:30:38;;;;;;;8.099999;6.65;;;;;;;18.03;77.7793;95006.79;;;;
2022/08/27 03:31:39;;;;;;;8.099999;6.65;;;;;;;18.03;77.7793;95006.79;;;;
2022/08/27 03:32:40;;;;;;;8.099999;6.65;;;;;;;18.03;77.7793;95006.79;;;;
2022/08/27 03:33:41;;;;;;;7.15;6.45;;;;;;;18;77.98242;95018.4;;;;
2022/08/27 03:34:41;;;;;;;7.15;6.45;;;;;;;18;77.98242;95018.4;;;;
2022/08/27 03:35:42;;;;;;;7.15;6.45;;;;;;;18;77.98242;95018.4;;;;
2022/08/27 03:36:42;;;;;;;7.15;6.45;;;;;;;18;77.98242;95018.4;;;;
2022/08/27 03:37:43;;;;;;;7.15;6.45;;;;;;;18;77.98242;95018.4;;;;
2022/08/27 03:38:44;;;;;;;7.15;6.45;;;;;;;18;77.98242;95018.4;;;;
2022/08/27 03:39:44;;;;;;;7.15;6.45;;;;;;;18;77.98242;95018.4;;;;
2022/08/27 03:40:45;;;;;;;7.15;6.45;;;;;;;18;77.98242;95018.4;;;;
2022/08/27 03:41:46;;;;;;;7.15;6.45;;;;;;;18;77.98242;95018.4;;;;
2022/08/27 03:42:46;;;;;;;7.15;6.45;;;;;;;18;77.98242;95018.4;;;;
2022/08/27 03:43:47;;;;;;;7.15;6.45;;;;;;;18;77.98242;95018.4;;;;
2022/08/27 03:44:48;;;;;;;7.55;6.7;;;;;;;17.92;78.15527;95030.95;;;;
2022/08/27 03:45:49;;;;;;;7.55;6.7;;;;;;;17.92;78.15527;95030.95;;;;
2022/08/27 03:46:51;;;;;;;7.55;6.7;;;;;;;17.92;78.15527;95030.95;;;;
2022/08/27 03:47:52;;;;;;;7.55;6.7;;;;;;;17.92;78.15527;95030.95;;;;
2022/08/27 03:48:52;;;;;;;7.55;6.7;;;;;;;17.92;78.15527;95030.95;;;;
2022/08/27 03:49:53;;;;;;;7.55;6.7;;;;;;;17.92;78.15527;95030.95;;;;
2022/08/27 03:50:53;;;;;;;7.55;6.7;;;;;;;17.92;78.15527;95030.95;;;;
2022/08/27 03:51:54;;;;;;;7.55;6.7;;;;;;;17.92;78.15527;95030.95;;;;
2022/08/27 03:52:54;;;;;;;7.55;6.7;;;;;;;17.92;78.15527;95030.95;;;;
2022/08/27 03:53:55;;;;;;;7.55;6.7;;;;;;;17.92;78.15527;95030.95;;;;
2022/08/27 03:54:55;;;;;;;7.95;7.149999;;;;;;;17.93;78.31152;95033.76;;;;
2022/08/27 03:55:57;;;;;;;7.95;7.149999;;;;;;;17.93;78.31152;95033.76;;;;
2022/08/27 03:56:58;;;;;;;7.95;7.149999;;;;;;;17.93;78.31152;95033.76;;;;
2022/08/27 03:57:58;;;;;;;7.95;7.149999;;;;;;;17.93;78.31152;95033.76;;;;
2022/08/27 03:58:59;;;;;;;7.95;7.149999;;;;;;;17.93;78.31152;95033.76;;;;
2022/08/27 03:59:59;;;;;;;7.95;7.149999;;;;;;;17.93;78.31152;95033.76;;;;
2022/08/27 04:01:00;;;;;;;7.95;7.149999;;;;;;;17.93;78.31152;95033.76;;;;
2022/08/27 04:02:01;;;;;;;7.95;7.149999;;;;;;;17.93;78.31152;95033.76;;;;
2022/08/27 04:03:04;;;;;;;7.95;7.149999;;;;;;;17.93;78.31152;95033.76;;;;
2022/08/27 04:04:05;;;;;;;7.95;7.149999;;;;;;;17.93;78.31152;95033.76;;;;
2022/08/27 04:05:06;;;;;;;7.95;7.149999;;;;;;;17.93;78.31152;95033.76;;;;
2022/08/27 04:06:09;;;;;;;7.900001;7.199999;;;;;;;17.91;78.50293;95023.08;;;;
2022/08/27 04:07:09;;;;;;;7.900001;7.199999;;;;;;;17.91;78.50293;95023.08;;;;
2022/08/27 04:08:11;;;;;;;7.900001;7.199999;;;;;;;17.91;78.50293;95023.08;;;;
2022/08/27 04:09:11;;;;;;;7.900001;7.199999;;;;;;;17.91;78.50293;95023.08;;;;
2022/08/27 04:10:12;;;;;;;7.900001;7.199999;;;;;;;17.91;78.50293;95023.08;;;;
2022/08/27 04:11:14;;;;;;;7.900001;7.199999;;;;;;;17.91;78.50293;95023.08;;;;
2022/08/27 04:12:15;;;;;;;7.900001;7.199999;;;;;;;17.91;78.50293;95023.08;;;;
2022/08/27 04:13:16;;;;;;;7.900001;7.199999;;;;;;;17.91;78.50293;95023.08;;;;
2022/08/27 04:14:18;;;;;;;7.900001;7.199999;;;;;;;17.91;78.50293;95023.08;;;;
2022/08/27 04:15:18;;;;;;;7.900001;7.199999;;;;;;;17.91;78.50293;95023.08;;;;
2022/08/27 04:16:18;;;;;;;7.750001;6.450001;;;;;;;17.96;78.7207;95032.83;;;;
2022/08/27 04:17:19;;;;;;;7.750001;6.450001;;;;;;;17.96;78.7207;95032.83;;;;
2022/08/27 04:18:19;;;;;;;7.750001;6.450001;;;;;;;17.96;78.7207;95032.83;;;;
2022/08/27 04:19:21;;;;;;;7.750001;6.450001;;;;;;;17.96;78.7207;95032.83;;;;
2022/08/27 04:20:21;;;;;;;7.750001;6.450001;;;;;;;17.96;78.7207;95032.83;;;;
2022/08/27 04:21:22;;;;;;;7.750001;6.450001;;;;;;;17.96;78.7207;95032.83;;;;
2022/08/27 04:22:22;;;;;;;7.750001;6.450001;;;;;;;17.96;78.7207;95032.83;;;;
2022/08/27 04:23:23;;;;;;;7.750001;6.450001;;;;;;;17.96;78.7207;95032.83;;;;
2022/08/27 04:24:23;;;;;;;7.750001;6.450001;;;;;;;17.96;78.7207;95032.83;;;;
2022/08/27 04:25:24;;;;;;;7.750001;6.450001;;;;;;;17.96;78.7207;95032.83;;;;
2022/08/27 04:26:25;;;;;;;7.750001;6.450001;;;;;;;17.96;78.7207;95032.83;;;;
2022/08/27 04:27:26;;;;;;;7;6.4;;;;;;;17.99;78.80176;95032.33;;;;
2022/08/27 04:28:27;;;;;;;7;6.4;;;;;;;17.99;78.80176;95032.33;;;;
2022/08/27 04:29:27;;;;;;;7;6.4;;;;;;;17.99;78.80176;95032.33;;;;
2022/08/27 04:30:28;;;;;;;7;6.4;;;;;;;17.99;78.80176;95032.33;;;;
2022/08/27 04:31:28;;;;;;;7;6.4;;;;;;;17.99;78.80176;95032.33;;;;
2022/08/27 04:32:30;;;;;;;7;6.4;;;;;;;17.99;78.80176;95032.33;;;;
2022/08/27 04:33:31;;;;;;;7;6.4;;;;;;;17.99;78.80176;95032.33;;;;
2022/08/27 04:34:32;;;;;;;7;6.4;;;;;;;17.99;78.80176;95032.33;;;;
2022/08/27 04:35:32;;;;;;;7;6.4;;;;;;;17.99;78.80176;95032.33;;;;
2022/08/27 04:36:33;;;;;;;7;6.4;;;;;;;17.99;78.80176;95032.33;;;;
2022/08/27 04:37:34;;;;;;;7.5;6.600001;;;;;;;18.1;78.94043;95043.84;;;;
2022/08/27 04:38:34;;;;;;;7.5;6.600001;;;;;;;18.1;78.94043;95043.84;;;;
2022/08/27 04:39:35;;;;;;;7.5;6.600001;;;;;;;18.1;78.94043;95043.84;;;;
2022/08/27 04:41:41;;;;;;;7.5;6.600001;;;;;;;18.1;78.94043;95043.84;;;;
2022/08/27 04:42:41;;;;;;;7.5;6.600001;;;;;;;18.1;78.94043;95043.84;;;;
2022/08/27 04:43:42;;;;;;;7.5;6.600001;;;;;;;18.1;78.94043;95043.84;;;;
2022/08/27 04:44:42;;;;;;;7.5;6.600001;;;;;;;18.1;78.94043;95043.84;;;;
2022/08/27 04:45:43;;;;;;;7.5;6.600001;;;;;;;18.1;78.94043;95043.84;;;;
2022/08/27 04:46:46;;;;;;;7.5;6.600001;;;;;;;18.1;78.94043;95043.84;;;;
2022/08/27 04:47:46;;;;;;;7.5;6.600001;;;;;;;18.1;78.94043;95043.84;;;;
2022/08/27 04:48:46;;;;;;;9.15;6.250001;;;;;;;18.13;78.96777;95044.12;;;;
2022/08/27 04:49:47;;;;;;;9.15;6.250001;;;;;;;18.13;78.96777;95044.12;;;;
2022/08/27 04:50:48;;;;;;;9.15;6.250001;;;;;;;18.13;78.96777;95044.12;;;;
2022/08/27 04:51:48;;;;;;;9.15;6.250001;;;;;;;18.13;78.96777;95044.12;;;;
2022/08/27 04:52:49;;;;;;;9.15;6.250001;;;;;;;18.13;78.96777;95044.12;;;;
2022/08/27 04:53:49;;;;;;;9.15;6.250001;;;;;;;18.13;78.96777;95044.12;;;;
2022/08/27 04:54:50;;;;;;;9.15;6.250001;;;;;;;18.13;78.96777;95044.12;;;;
2022/08/27 04:55:51;;;;;;;9.15;6.250001;;;;;;;18.13;78.96777;95044.12;;;;
2022/08/27 04:56:53;;;;;;;9.15;6.250001;;;;;;;18.13;78.96777;95044.12;;;;
2022/08/27 04:57:54;;;;;;;9.15;6.250001;;;;;;;18.13;78.96777;95044.12;;;;
2022/08/27 04:58:54;;;;;;;6.550001;5.849999;;;;;;;18.26;79.13477;95048.56;;;;
2022/08/27 04:59:56;;;;;;;6.550001;5.849999;;;;;;;18.26;79.13477;95048.56;;;;
2022/08/27 05:01:00;;;;;;;6.550001;5.849999;;;;;;;18.26;79.13477;95048.56;;;;
2022/08/27 05:02:00;;;;;;;6.550001;5.849999;;;;;;;18.26;79.13477;95048.56;;;;
2022/08/27 05:03:02;;;;;;;6.550001;5.849999;;;;;;;18.26;79.13477;95048.56;;;;
2022/08/27 05:04:03;;;;;;;6.550001;5.849999;;;;;;;18.26;79.13477;95048.56;;;;
2022/08/27 05:05:04;;;;;;;6.550001;5.849999;;;;;;;18.26;79.13477;95048.56;;;;
2022/08/27 05:06:06;;;;;;;6.550001;5.849999;;;;;;;18.26;79.13477;95048.56;;;;
2022/08/27 05:07:06;;;;;;;6.550001;5.849999;;;;;;;18.26;79.13477;95048.56;;;;
2022/08/27 05:08:09;;;;;;;6.550001;5.849999;;;;;;;18.26;79.13477;95048.56;;;;
2022/08/27 05:09:10;;;;;;;6.550001;5.849999;;;;;;;18.26;79.13477;95048.56;;;;
2022/08/27 05:10:12;;;;;;;6.25;5.649999;;;;;;;18.35;79.17188;95051.93;;;;
2022/08/27 05:11:13;;;;;;;6.25;5.649999;;;;;;;18.35;79.17188;95051.93;;;;
2022/08/27 05:12:15;;;;;;;6.25;5.649999;;;;;;;18.35;79.17188;95051.93;;;;
2022/08/27 05:13:17;;;;;;;6.25;5.649999;;;;;;;18.35;79.17188;95051.93;;;;
2022/08/27 05:14:21;;;;;;;6.25;5.649999;;;;;;;18.35;79.17188;95051.93;;;;
2022/08/27 05:15:21;;;;;;;6.25;5.649999;;;;;;;18.35;79.17188;95051.93;;;;
2022/08/27 05:16:22;;;;;;;6.25;5.649999;;;;;;;18.35;79.17188;95051.93;;;;
2022/08/27 05:17:22;;;;;;;6.25;5.649999;;;;;;;18.35;79.17188;95051.93;;;;
2022/08/27 05:18:23;;;;;;;6.25;5.649999;;;;;;;18.35;79.17188;95051.93;;;;
2022/08/27 05:19:23;;;;;;;6.25;5.649999;;;;;;;18.35;79.17188;95051.93;;;;
2022/08/27 05:20:25;;;;;;;5.45;4.95;;;;;;;18.49;79.20703;95057.47;;;;
2022/08/27 05:21:26;;;;;;;5.45;4.95;;;;;;;18.49;79.20703;95057.47;;;;
2022/08/27 05:22:29;;;;;;;5.45;4.95;;;;;;;18.49;79.20703;95057.47;;;;
2022/08/27 05:23:30;;;;;;;5.45;4.95;;;;;;;18.49;79.20703;95057.47;;;;
2022/08/27 05:24:31;;;;;;;5.45;4.95;;;;;;;18.49;79.20703;95057.47;;;;
2022/08/27 05:25:31;;;;;;;5.45;4.95;;;;;;;18.49;79.20703;95057.47;;;;
2022/08/27 05:26:37;;;;;;;5.45;4.95;;;;;;;18.49;79.20703;95057.47;;;;
2022/08/27 05:27:37;;;;;;;5.45;4.95;;;;;;;18.49;79.20703;95057.47;;;;
2022/08/27 05:28:38;;;;;;;5.45;4.95;;;;;;;18.49;79.20703;95057.47;;;;
2022/08/27 05:29:38;;;;;;;5.45;4.95;;;;;;;18.49;79.20703;95057.47;;;;
2022/08/27 05:30:39;;;;;;;5.45;4.95;;;;;;;18.49;79.20703;95057.47;;;;
2022/08/27 05:31:43;;;;;;;5.349999;4.849999;;;;;;;18.53;79.15039;95050.9;;;;
2022/08/27 05:32:43;;;;;;;5.349999;4.849999;;;;;;;18.53;79.15039;95050.9;;;;
2022/08/27 05:33:44;;;;;;;5.349999;4.849999;;;;;;;18.53;79.15039;95050.9;;;;
2022/08/27 05:34:45;;;;;;;5.349999;4.849999;;;;;;;18.53;79.15039;95050.9;;;;
2022/08/27 05:35:45;;;;;;;5.349999;4.849999;;;;;;;18.53;79.15039;95050.9;;;;
2022/08/27 05:36:48;;;;;;;5.349999;4.849999;;;;;;;18.53;79.15039;95050.9;;;;
2022/08/27 05:37:49;;;;;;;5.349999;4.849999;;;;;;;18.53;79.15039;95050.9;;;;
2022/08/27 05:38:50;;;;;;;5.349999;4.849999;;;;;;;18.53;79.15039;95050.9;;;;
2022/08/27 05:39:52;;;;;;;5.349999;4.849999;;;;;;;18.53;79.15039;95050.9;;;;